createdAt,value
2023-05-14T00:00:36.649Z,10.20
2023-05-14T00:03:27.429Z,11.50
2023-05-14T00:05:55.729Z,10.80
2023-05-14T00:08:23.837Z,12.50
2023-05-14T00:10:52.470Z,11.70
2023-05-14T00:13:20.616Z,10.70
2023-05-14T00:15:48.878Z,10.80
2023-05-14T00:18:17.005Z,11.20
2023-05-14T00:20:45.506Z,11.30
2023-05-14T00:23:13.680Z,11.70
2023-05-14T00:25:41.947Z,11.40
2023-05-14T00:28:10.093Z,11.40
2023-05-14T00:30:38.339Z,11.90
2023-05-14T00:33:07.152Z,12.00
2023-05-14T00:35:36.018Z,12.30
2023-05-14T00:38:04.756Z,9.90
2023-05-14T00:40:33.151Z,12.00
2023-05-14T00:43:01.701Z,11.60
2023-05-14T00:45:29.911Z,11.10
2023-05-14T00:47:58.209Z,10.00
2023-05-14T00:50:26.937Z,10.10
2023-05-14T00:52:55.288Z,10.90
2023-05-14T00:55:23.815Z,10.60
2023-05-14T00:57:54.766Z,10.20
2023-05-14T01:00:23.273Z,11.60
2023-05-14T01:02:51.910Z,11.70
2023-05-14T01:05:20.306Z,12.80
2023-05-14T01:08:23.261Z,12.20
2023-05-14T01:10:57.895Z,13.60
2023-05-14T01:13:41.142Z,15.30
2023-05-14T01:16:13.825Z,13.70
2023-05-14T01:18:44.353Z,18.20
2023-05-14T01:21:36.444Z,20.50
2023-05-14T01:24:05.033Z,18.90
2023-05-14T01:26:33.872Z,18.70
2023-05-14T01:29:23.272Z,16.80
2023-05-14T01:31:54.332Z,16.70
2023-05-14T01:34:24.694Z,18.10
2023-05-14T01:36:53.925Z,18.50
2023-05-14T01:39:24.334Z,17.80
2023-05-14T01:41:54.405Z,18.30
2023-05-14T01:44:22.686Z,16.60
2023-05-14T01:46:50.903Z,17.60
2023-05-14T01:49:19.812Z,16.30
2023-05-14T01:51:47.972Z,14.80
2023-05-14T01:54:16.368Z,16.10
2023-05-14T01:56:44.524Z,16.00
2023-05-14T01:59:12.612Z,16.50
2023-05-14T02:01:40.868Z,16.70
2023-05-14T02:04:09.152Z,16.30
2023-05-14T02:06:37.346Z,17.00
2023-05-14T02:09:05.799Z,16.10
2023-05-14T02:11:33.945Z,16.40
2023-05-14T02:14:02.070Z,15.70
2023-05-14T02:16:30.238Z,15.50
2023-05-14T02:18:58.396Z,12.20
2023-05-14T02:21:26.587Z,11.70
2023-05-14T02:23:54.723Z,12.70
2023-05-14T02:26:22.947Z,12.50
2023-05-14T02:28:51.858Z,11.70
2023-05-14T02:31:20.451Z,11.60
2023-05-14T02:33:48.606Z,11.90
2023-05-14T02:36:16.755Z,11.30
2023-05-14T02:38:44.816Z,11.20
2023-05-14T02:41:12.938Z,10.80
2023-05-14T02:43:41.387Z,9.50
2023-05-14T02:46:09.546Z,10.40
2023-05-14T02:48:37.694Z,10.00
2023-05-14T02:51:05.847Z,9.60
2023-05-14T02:53:33.951Z,10.20
2023-05-14T02:56:02.100Z,10.00
2023-05-14T02:58:30.476Z,10.30
2023-05-14T03:00:58.709Z,10.50
2023-05-14T03:03:29.430Z,10.40
2023-05-14T03:05:58.168Z,10.20
2023-05-14T03:08:26.330Z,10.70
2023-05-14T03:10:54.505Z,10.50
2023-05-14T03:13:22.586Z,9.40
2023-05-14T03:15:54.974Z,9.80
2023-05-14T03:18:23.734Z,9.20
2023-05-14T03:20:52.034Z,9.00
2023-05-14T03:23:20.202Z,9.20
2023-05-14T03:25:48.415Z,8.80
2023-05-14T03:28:16.520Z,9.10
2023-05-14T03:30:44.804Z,9.30
2023-05-14T03:33:13.046Z,9.30
2023-05-14T03:35:41.153Z,9.20
2023-05-14T03:38:09.322Z,9.80
2023-05-14T03:40:37.466Z,9.80
2023-05-14T03:43:05.559Z,10.40
2023-05-14T03:45:34.078Z,9.50
2023-05-14T03:48:02.254Z,10.10
2023-05-14T03:50:31.366Z,10.40
2023-05-14T03:52:59.478Z,10.40
2023-05-14T03:55:27.717Z,10.90
2023-05-14T03:57:55.856Z,9.90
2023-05-14T04:00:24.536Z,9.60
2023-05-14T04:02:54.315Z,10.70
2023-05-14T04:05:26.884Z,10.40
2023-05-14T04:07:55.639Z,10.40
2023-05-14T04:10:23.888Z,11.00
2023-05-14T04:12:52.238Z,10.70
2023-05-14T04:15:20.607Z,10.80
2023-05-14T04:17:48.830Z,10.90
2023-05-14T04:20:17.020Z,11.60
2023-05-14T04:22:45.295Z,11.40
2023-05-14T04:25:13.456Z,11.60
2023-05-14T04:27:41.725Z,11.10
2023-05-14T04:30:10.342Z,10.70
2023-05-14T04:32:39.192Z,10.80
2023-05-14T04:35:09.129Z,11.00
2023-05-14T04:37:37.322Z,11.00
2023-05-14T04:40:07.054Z,10.60
2023-05-14T04:42:35.145Z,10.40
2023-05-14T04:45:05.352Z,11.10
2023-05-14T04:47:33.579Z,10.50
2023-05-14T04:50:02.179Z,10.60
2023-05-14T04:52:30.360Z,10.30
2023-05-14T04:54:58.508Z,10.50
2023-05-14T04:57:26.845Z,10.70
2023-05-14T04:59:55.087Z,10.50
2023-05-14T05:02:23.873Z,10.80
2023-05-14T05:04:52.070Z,10.20
2023-05-14T05:07:20.280Z,11.20
2023-05-14T05:09:48.353Z,10.60
2023-05-14T05:12:16.493Z,11.30
2023-05-14T05:14:44.686Z,11.50
2023-05-14T05:17:12.800Z,11.40
2023-05-14T05:19:44.286Z,12.00
2023-05-14T05:22:12.782Z,11.90
2023-05-14T05:24:41.076Z,10.50
2023-05-14T05:27:09.179Z,11.70
2023-05-14T05:29:37.604Z,9.60
2023-05-14T05:32:06.401Z,9.70
2023-05-14T05:34:35.968Z,8.70
2023-05-14T05:37:06.079Z,9.20
2023-05-14T05:39:35.251Z,9.00
2023-05-14T05:42:06.137Z,9.30
2023-05-14T05:44:34.636Z,9.10
2023-05-14T05:47:02.944Z,8.70
2023-05-14T05:49:31.122Z,7.90
2023-05-14T05:51:59.242Z,8.00
2023-05-14T05:54:27.398Z,7.30
2023-05-14T05:56:55.708Z,6.90
2023-05-14T05:59:24.828Z,7.20
2023-05-14T06:01:53.370Z,6.50
2023-05-14T06:04:21.659Z,6.60
2023-05-14T06:06:49.760Z,5.80
2023-05-14T06:09:17.968Z,5.80
2023-05-14T06:11:46.175Z,5.80
2023-05-14T06:14:14.366Z,5.80
2023-05-14T06:16:42.475Z,6.70
2023-05-14T06:19:11.292Z,6.90
2023-05-14T06:21:39.612Z,7.20
2023-05-14T06:24:07.940Z,7.30
2023-05-14T06:26:36.068Z,8.50
2023-05-14T06:29:04.163Z,8.20
2023-05-14T06:31:32.328Z,7.50
2023-05-14T06:34:00.457Z,7.50
2023-05-14T06:36:28.625Z,7.10
2023-05-14T06:38:56.951Z,7.00
2023-05-14T06:41:25.052Z,6.80
2023-05-14T06:43:53.197Z,6.60
2023-05-14T06:46:21.670Z,6.80
2023-05-14T06:48:49.887Z,6.40
2023-05-14T06:51:18.051Z,6.50
2023-05-14T06:53:47.000Z,6.30
2023-05-14T06:56:15.137Z,6.20
2023-05-14T06:58:43.316Z,6.10
2023-05-14T07:01:11.495Z,6.20
2023-05-14T07:03:39.699Z,6.30
2023-05-14T07:06:07.930Z,6.20
2023-05-14T07:08:36.247Z,6.20
2023-05-14T07:11:04.572Z,6.00
2023-05-14T07:13:32.690Z,5.40
2023-05-14T07:16:00.795Z,5.10
2023-05-14T07:18:29.017Z,5.30
2023-05-14T07:20:57.383Z,5.60
2023-05-14T07:23:25.535Z,4.80
2023-05-14T07:25:53.751Z,5.10
2023-05-14T07:28:21.917Z,4.90
2023-05-14T07:30:50.078Z,5.00
2023-05-14T07:33:18.376Z,4.90
2023-05-14T07:35:46.619Z,4.70
2023-05-14T07:38:15.438Z,5.10
2023-05-14T07:40:43.737Z,4.60
2023-05-14T07:43:11.940Z,4.60
2023-05-14T07:45:40.284Z,4.40
2023-05-14T07:48:08.776Z,4.50
2023-05-14T07:50:37.874Z,4.40
2023-05-14T07:53:06.209Z,4.60
2023-05-14T07:55:34.291Z,4.20
2023-05-14T07:58:02.491Z,4.40
2023-05-14T08:00:30.855Z,4.60
2023-05-14T08:02:59.421Z,4.30
2023-05-14T08:05:27.788Z,4.70
2023-05-14T08:07:56.021Z,4.30
2023-05-14T08:10:24.340Z,4.80
2023-05-14T08:12:52.767Z,4.40
2023-05-14T08:15:21.162Z,4.60
2023-05-14T08:17:49.376Z,4.60
2023-05-14T08:20:17.765Z,4.70
2023-05-14T08:22:45.917Z,4.80
2023-05-14T08:25:14.068Z,4.60
2023-05-14T08:27:42.265Z,4.70
2023-05-14T08:30:10.843Z,4.50
2023-05-14T08:32:39.548Z,4.80
2023-05-14T08:35:08.421Z,5.00
2023-05-14T08:37:36.548Z,4.60
2023-05-14T08:40:04.996Z,4.70
2023-05-14T08:42:33.358Z,4.80
2023-05-14T08:45:03.321Z,4.70
2023-05-14T08:47:32.012Z,4.40
2023-05-14T08:50:08.428Z,4.50
2023-05-14T08:52:36.523Z,4.30
2023-05-14T08:55:06.669Z,4.30
2023-05-14T08:57:35.525Z,4.40
2023-05-14T09:00:08.823Z,4.40
2023-05-14T09:02:37.538Z,3.90
2023-05-14T09:05:07.571Z,4.20
2023-05-14T09:07:36.268Z,3.80
2023-05-14T09:10:04.930Z,4.00
2023-05-14T09:12:33.200Z,3.80
2023-05-14T09:15:01.334Z,3.20
2023-05-14T09:17:29.601Z,3.60
2023-05-14T09:19:58.557Z,3.20
2023-05-14T09:22:31.924Z,3.40
2023-05-14T09:27:36.535Z,3.60
2023-05-14T09:30:12.625Z,3.90
2023-05-14T09:32:50.640Z,3.50
2023-05-14T09:35:23.981Z,3.20
2023-05-14T09:40:24.581Z,3.70
2023-05-14T09:42:53.504Z,3.40
2023-05-14T09:45:21.985Z,3.10
2023-05-14T09:47:50.353Z,3.10
2023-05-14T09:50:18.657Z,3.70
2023-05-14T09:52:46.809Z,3.10
2023-05-14T09:55:16.187Z,2.90
2023-05-14T09:57:45.180Z,3.20
2023-05-14T10:00:13.918Z,2.90
2023-05-14T10:02:45.703Z,3.10
2023-05-14T10:05:16.063Z,3.20
2023-05-14T10:07:51.823Z,3.00
2023-05-14T10:10:21.464Z,3.00
2023-05-14T10:13:04.761Z,3.00
2023-05-14T10:15:59.512Z,3.00
2023-05-14T10:18:31.793Z,3.10
2023-05-14T10:21:08.147Z,3.00
2023-05-14T10:23:38.170Z,2.60
2023-05-14T10:26:07.072Z,2.80
2023-05-14T10:28:36.987Z,2.60
2023-05-14T10:31:05.212Z,3.20
2023-05-14T10:33:47.348Z,3.10
2023-05-14T10:36:15.749Z,2.60
2023-05-14T10:38:43.967Z,3.00
2023-05-14T10:41:18.061Z,3.30
2023-05-14T10:43:46.294Z,3.00
2023-05-14T10:46:15.158Z,2.70
2023-05-14T10:48:44.538Z,2.80
2023-05-14T10:51:13.068Z,3.00
2023-05-14T10:53:43.300Z,3.00
2023-05-14T10:56:14.776Z,2.80
2023-05-14T10:58:44.939Z,3.00
2023-05-14T11:01:14.036Z,2.70
2023-05-14T11:03:46.970Z,2.80
2023-05-14T11:06:16.404Z,3.70
2023-05-14T11:08:46.618Z,3.40
2023-05-14T11:11:15.121Z,3.30
2023-05-14T11:13:44.861Z,3.70
2023-05-14T11:16:23.436Z,3.10
2023-05-14T11:19:03.522Z,2.70
2023-05-14T11:21:33.051Z,2.80
2023-05-14T11:24:01.764Z,2.50
2023-05-14T11:26:31.814Z,3.10
2023-05-14T11:29:00.243Z,2.80
2023-05-14T11:31:28.517Z,2.70
2023-05-14T11:33:57.084Z,2.20
2023-05-14T11:36:25.299Z,2.40
2023-05-14T11:38:53.545Z,2.90
2023-05-14T11:41:23.163Z,2.40
2023-05-14T11:43:51.721Z,2.50
2023-05-14T11:46:20.103Z,2.50
2023-05-14T11:48:48.573Z,2.40
2023-05-14T11:51:17.024Z,2.70
2023-05-14T11:53:46.334Z,2.50
2023-05-14T11:56:14.501Z,2.50
2023-05-14T11:58:48.690Z,2.30
2023-05-14T12:01:17.322Z,2.60
2023-05-14T12:03:45.999Z,2.30
2023-05-14T12:06:14.235Z,2.70
2023-05-14T12:08:42.499Z,2.40
2023-05-14T12:11:10.670Z,2.40
2023-05-14T12:13:39.845Z,2.50
2023-05-14T12:16:08.060Z,2.70
2023-05-14T12:18:37.279Z,2.70
2023-05-14T12:21:08.463Z,2.60
2023-05-14T12:23:39.174Z,2.50
2023-05-14T12:26:09.237Z,2.80
2023-05-14T12:28:43.615Z,2.70
2023-05-14T12:31:12.118Z,2.60
2023-05-14T12:33:40.549Z,3.70
2023-05-14T12:38:42.009Z,2.50
2023-05-14T12:41:10.131Z,2.40
2023-05-14T12:43:38.371Z,2.30
2023-05-14T12:46:06.743Z,2.60
2023-05-14T12:48:34.978Z,2.40
2023-05-14T12:51:03.299Z,2.50
2023-05-14T12:53:31.525Z,2.70
2023-05-14T12:55:59.642Z,2.40
2023-05-14T12:58:27.764Z,2.90
2023-05-14T13:00:56.667Z,2.70
2023-05-14T13:03:25.355Z,2.30
2023-05-14T13:05:54.469Z,2.40
2023-05-14T13:08:25.146Z,2.70
2023-05-14T13:10:54.231Z,2.50
2023-05-14T13:13:23.082Z,2.90
2023-05-14T13:15:51.242Z,2.20
2023-05-14T13:18:19.535Z,2.10
2023-05-14T13:20:48.038Z,3.10
2023-05-14T13:23:16.219Z,2.50
2023-05-14T13:25:44.334Z,2.40
2023-05-14T13:28:12.629Z,2.40
2023-05-14T13:30:41.038Z,2.30
2023-05-14T13:33:09.260Z,2.80
2023-05-14T13:35:37.665Z,2.90
2023-05-14T13:38:05.909Z,3.00
2023-05-14T13:40:34.011Z,3.00
2023-05-14T13:43:03.178Z,2.60
2023-05-14T13:45:31.275Z,2.80
2023-05-14T13:47:59.465Z,2.90
2023-05-14T13:50:27.607Z,3.00
2023-05-14T13:52:55.691Z,2.60
2023-05-14T13:55:23.950Z,2.40
2023-05-14T13:57:52.163Z,2.30
2023-05-14T14:00:20.532Z,2.10
2023-05-14T14:02:48.636Z,2.10
2023-05-14T14:05:16.888Z,2.30
2023-05-14T14:07:45.784Z,2.20
2023-05-14T14:10:14.777Z,2.90
2023-05-14T14:12:42.891Z,3.00
2023-05-14T14:15:11.551Z,3.70
2023-05-14T14:17:41.836Z,3.50
2023-05-14T14:20:10.780Z,3.60
2023-05-14T14:22:39.145Z,3.40
2023-05-14T14:25:08.647Z,3.40
2023-05-14T14:27:38.675Z,3.30
2023-05-14T14:30:17.097Z,3.20
2023-05-14T14:32:46.989Z,3.40
2023-05-14T14:35:17.030Z,3.30
2023-05-14T14:37:49.244Z,3.70
2023-05-14T14:40:17.918Z,3.00
2023-05-14T14:42:46.071Z,3.20
2023-05-14T14:45:14.255Z,3.60
2023-05-14T14:47:47.244Z,3.10
2023-05-14T14:50:15.672Z,3.20
2023-05-14T14:52:46.005Z,3.30
2023-05-14T14:55:14.313Z,3.10
2023-05-14T14:57:42.504Z,3.30
2023-05-14T15:00:11.467Z,2.80
2023-05-14T15:02:42.308Z,3.20
2023-05-14T15:05:10.662Z,3.20
2023-05-14T15:07:38.860Z,3.10
2023-05-14T15:10:07.642Z,2.90
2023-05-14T15:12:35.956Z,2.70
2023-05-14T15:15:04.380Z,2.70
2023-05-14T15:17:32.546Z,3.00
2023-05-14T15:20:00.712Z,3.10
2023-05-14T15:22:28.888Z,2.90
2023-05-14T15:24:57.030Z,4.00
2023-05-14T15:27:25.319Z,3.80
2023-05-14T15:29:53.825Z,4.10
2023-05-14T15:32:22.285Z,4.10
2023-05-14T15:34:50.547Z,3.60
2023-05-14T15:37:18.838Z,3.70
2023-05-14T15:39:47.024Z,3.20
2023-05-14T15:42:15.241Z,3.20
2023-05-14T15:44:43.394Z,3.30
2023-05-14T15:47:11.485Z,3.30
2023-05-14T15:49:39.632Z,2.80
2023-05-14T15:52:07.995Z,3.30
2023-05-14T15:54:36.189Z,3.10
2023-05-14T15:57:04.616Z,2.70
2023-05-14T15:59:32.819Z,2.90
2023-05-14T16:02:00.963Z,2.80
2023-05-14T16:04:29.237Z,2.90
2023-05-14T16:07:08.042Z,3.00
2023-05-14T16:09:38.866Z,2.80
2023-05-14T16:12:08.099Z,2.80
2023-05-14T16:14:36.542Z,3.20
2023-05-14T16:17:04.898Z,3.00
2023-05-14T16:19:32.987Z,2.90
2023-05-14T16:22:01.429Z,2.70
2023-05-14T16:24:29.717Z,3.30
2023-05-14T16:26:58.483Z,3.90
2023-05-14T16:29:26.545Z,4.60
2023-05-14T16:31:54.979Z,4.60
2023-05-14T16:34:23.114Z,4.60
2023-05-14T16:36:51.269Z,4.80
2023-05-14T16:39:20.108Z,4.50
2023-05-14T16:41:48.220Z,5.00
2023-05-14T16:44:16.610Z,4.60
2023-05-14T16:46:45.012Z,4.60
2023-05-14T16:49:14.203Z,5.60
2023-05-14T16:51:44.018Z,5.00
2023-05-14T16:54:12.165Z,5.10
2023-05-14T16:56:40.623Z,4.90
2023-05-14T16:59:08.978Z,5.30
2023-05-14T17:01:37.691Z,5.20
2023-05-14T17:04:06.003Z,4.60
2023-05-14T17:06:34.797Z,4.80
2023-05-14T17:09:03.788Z,4.10
2023-05-14T17:11:31.855Z,4.40
2023-05-14T17:13:58.872Z,3.70
2023-05-14T17:16:26.271Z,3.80
2023-05-14T17:18:56.571Z,4.40
2023-05-14T17:21:24.936Z,4.70
2023-05-14T17:23:53.191Z,4.10
2023-05-14T17:26:21.984Z,4.30
2023-05-14T17:28:50.120Z,4.40
2023-05-14T17:31:18.444Z,4.00
2023-05-14T17:33:46.817Z,3.90
2023-05-14T17:36:15.402Z,3.90
2023-05-14T17:38:43.970Z,3.80
2023-05-14T17:41:12.451Z,4.00
2023-05-14T17:43:40.605Z,3.20
2023-05-14T17:46:08.923Z,3.60
2023-05-14T17:48:37.018Z,3.40
2023-05-14T17:51:05.195Z,3.90
2023-05-14T17:53:33.365Z,4.10
2023-05-14T17:56:01.635Z,3.60
2023-05-14T17:58:30.066Z,3.90
2023-05-14T18:00:58.275Z,4.30
2023-05-14T18:03:26.833Z,4.40
2023-05-14T18:05:55.304Z,4.10
2023-05-14T18:08:23.533Z,3.90
2023-05-14T18:10:51.774Z,4.50
2023-05-14T18:13:20.268Z,4.50
2023-05-14T18:15:48.499Z,4.10
2023-05-14T18:18:18.887Z,4.40
2023-05-14T18:20:47.198Z,4.10
2023-05-14T18:23:15.517Z,4.30
2023-05-14T18:25:43.900Z,4.60
2023-05-14T18:28:13.269Z,8.20
2023-05-14T18:30:44.165Z,4.50
2023-05-14T18:33:13.526Z,4.80
2023-05-14T18:35:44.100Z,4.50
2023-05-14T18:38:13.970Z,4.60
2023-05-14T18:40:42.085Z,5.30
2023-05-14T18:43:11.748Z,4.60
2023-05-14T18:45:40.534Z,5.10
2023-05-14T18:48:10.072Z,5.20
2023-05-14T18:50:39.369Z,4.90
2023-05-14T18:53:08.518Z,5.10
2023-05-14T18:55:37.183Z,4.60
2023-05-14T18:58:05.450Z,4.70
2023-05-14T19:00:33.586Z,4.80
2023-05-14T19:03:01.776Z,4.60
2023-05-14T19:05:30.329Z,4.80
2023-05-14T19:07:58.541Z,4.10
2023-05-14T19:10:26.869Z,4.00
2023-05-14T19:12:55.053Z,4.10
2023-05-14T19:15:23.803Z,4.40
2023-05-14T19:17:54.143Z,4.10
2023-05-14T19:20:22.440Z,4.30
2023-05-14T19:22:50.787Z,3.90
2023-05-14T19:25:18.899Z,4.20
2023-05-14T19:27:51.024Z,4.20
2023-05-14T19:30:20.303Z,4.10
2023-05-14T19:32:48.489Z,4.30
2023-05-14T19:35:16.641Z,4.80
2023-05-14T19:37:44.782Z,4.40
2023-05-14T19:40:13.177Z,4.00
2023-05-14T19:42:41.559Z,4.10
2023-05-14T19:45:10.382Z,4.50
2023-05-14T19:47:38.830Z,4.20
2023-05-14T19:50:08.615Z,4.10
2023-05-14T19:52:36.702Z,3.50
2023-05-14T19:55:05.397Z,4.00
2023-05-14T19:57:33.513Z,3.10
2023-05-14T20:00:01.704Z,3.40
2023-05-14T20:02:30.311Z,3.60
2023-05-14T20:04:58.715Z,3.50
2023-05-14T20:07:26.977Z,3.70
2023-05-14T20:09:55.141Z,3.50
2023-05-14T20:12:23.454Z,5.20
2023-05-14T20:14:51.804Z,3.60
2023-05-14T20:17:21.130Z,3.20
2023-05-14T20:19:49.224Z,3.30
2023-05-14T20:22:17.315Z,3.40
2023-05-14T20:24:45.614Z,4.10
2023-05-14T20:27:13.908Z,3.70
2023-05-14T20:29:42.105Z,3.00
2023-05-14T20:32:10.455Z,3.00
2023-05-14T20:34:38.592Z,2.90
2023-05-14T20:37:08.137Z,3.20
2023-05-14T20:39:36.383Z,3.30
2023-05-14T20:42:04.841Z,3.00
2023-05-14T20:44:32.993Z,3.30
2023-05-14T20:47:01.400Z,4.00
2023-05-14T20:49:29.627Z,5.20
2023-05-14T20:51:57.680Z,3.80
2023-05-14T20:54:25.740Z,4.40
2023-05-14T20:56:53.939Z,4.30
2023-05-14T20:59:22.055Z,4.10
2023-05-14T21:01:51.085Z,4.50
2023-05-14T21:04:19.564Z,4.30
2023-05-14T21:06:47.761Z,4.60
2023-05-14T21:09:16.190Z,4.60
2023-05-14T21:11:44.588Z,4.50
2023-05-14T21:14:12.859Z,4.70
2023-05-14T21:16:41.072Z,3.90
2023-05-14T21:19:09.420Z,3.60
2023-05-14T21:21:37.965Z,3.60
2023-05-14T21:24:06.442Z,3.50
2023-05-14T21:26:35.863Z,3.70
2023-05-14T21:29:04.315Z,3.10
2023-05-14T21:31:32.468Z,3.30
2023-05-14T21:34:00.797Z,3.50
2023-05-14T21:36:29.195Z,3.60
2023-05-14T21:38:57.372Z,3.40
2023-05-14T21:41:25.713Z,3.80
2023-05-14T21:43:53.813Z,3.40
2023-05-14T21:46:21.984Z,3.80
2023-05-14T21:48:50.234Z,3.50
2023-05-14T21:51:18.346Z,3.50
2023-05-14T21:53:48.592Z,3.40
2023-05-14T21:56:16.760Z,3.30
2023-05-14T21:58:45.132Z,3.80
2023-05-14T22:01:13.264Z,3.30
2023-05-14T22:03:41.570Z,3.30
2023-05-14T22:06:09.710Z,5.10
2023-05-14T22:08:37.837Z,7.70
2023-05-14T22:11:05.975Z,6.20
2023-05-14T22:13:35.518Z,4.90
2023-05-14T22:16:12.029Z,4.10
2023-05-14T22:18:41.697Z,3.70
2023-05-14T22:21:09.951Z,3.70
2023-05-14T22:23:38.046Z,3.40
2023-05-14T22:26:06.208Z,3.50
2023-05-14T22:28:34.370Z,3.60
2023-05-14T22:31:02.571Z,3.50
2023-05-14T22:33:33.248Z,3.50
2023-05-14T22:36:01.535Z,3.70
2023-05-14T22:38:29.624Z,3.60
2023-05-14T22:40:57.751Z,3.40
2023-05-14T22:43:25.959Z,3.70
2023-05-14T22:45:54.209Z,3.40
2023-05-14T22:48:22.622Z,3.40
2023-05-14T22:50:51.920Z,3.90
2023-05-14T22:53:20.033Z,3.70
2023-05-14T22:55:48.215Z,4.10
2023-05-14T22:58:16.430Z,4.00
2023-05-14T23:00:44.513Z,3.90
2023-05-14T23:03:12.610Z,4.00
2023-05-14T23:05:40.818Z,4.00
2023-05-14T23:08:09.108Z,4.40
2023-05-14T23:10:37.400Z,4.60
2023-05-14T23:13:05.649Z,4.50
2023-05-14T23:15:33.754Z,4.40
2023-05-14T23:18:01.998Z,5.20
2023-05-14T23:20:30.191Z,6.50
2023-05-14T23:22:58.313Z,5.00
2023-05-14T23:25:26.481Z,4.50
2023-05-14T23:27:54.682Z,4.50
2023-05-14T23:30:22.794Z,4.60
2023-05-14T23:32:50.986Z,4.70
2023-05-14T23:35:19.348Z,4.90
2023-05-14T23:37:49.645Z,4.70
2023-05-14T23:40:18.396Z,4.60
2023-05-14T23:42:46.879Z,3.90
2023-05-14T23:45:15.146Z,4.60
2023-05-14T23:47:43.378Z,4.70
2023-05-14T23:50:11.629Z,4.90
2023-05-14T23:52:39.717Z,4.60
2023-05-14T23:55:08.101Z,4.70
2023-05-14T23:57:36.341Z,4.20
